Time;durP1;ratioP1;P1;durP2;ratioP2;P2;SDS_P1;SDS_P2;PMS_P1;PMS_P2;Temp;Humidity;BMP_temperature;BMP_pressure;BME280_temperature;BME280_humidity;BME280_pressure;Samples;Min_cycle;Max_cycle;Signal;HPM_P1;HPM_P2
2023/03/22 00:01:24;;;;;;;49.60;32.10;;;;;;;5.05;71.75;99112.92;108870;1253;95636;-71
2023/03/22 00:03:51;;;;;;;50.90;31.40;;;;;;;5.05;71.78;99110.48;108736;1254;95623;-71
2023/03/22 00:06:18;;;;;;;51.70;32.20;;;;;;;5.01;71.70;99111.20;108887;1253;95701;-71
2023/03/22 00:08:49;;;;;;;53.30;33.00;;;;;;;4.96;71.72;99107.95;108893;1253;96002;-71
2023/03/22 00:11:16;;;;;;;53.90;33.30;;;;;;;4.96;71.84;99107.58;108758;1252;99729;-71
2023/03/22 00:13:45;;;;;;;52.80;32.80;;;;;;;4.98;71.78;99106.58;108754;1253;95685;-70
2023/03/22 00:16:16;;;;;;;49.20;31.90;;;;;;;4.96;71.78;99102.49;108878;1252;95658;-71
2023/03/22 00:18:42;;;;;;;46.40;28.50;;;;;;;4.93;71.78;99100.86;108860;1254;95909;-70
2023/03/22 00:21:16;;;;;;;43.90;28.50;;;;;;;4.92;71.76;99097.57;108875;1253;95689;-70
2023/03/22 00:23:43;;;;;;;48.70;31.20;;;;;;;4.96;71.94;99095.98;108727;1254;100513;-70
2023/03/22 00:26:12;;;;;;;46.80;30.10;;;;;;;5.00;71.98;99097.21;108810;1253;107706;-71
2023/03/22 00:28:40;;;;;;;49.10;31.00;;;;;;;4.99;71.87;99096.01;108553;1254;96380;-71
2023/03/22 00:31:07;;;;;;;45.70;28.60;;;;;;;4.98;71.87;99093.44;108770;1254;95673;-71
2023/03/22 00:33:35;;;;;;;54.00;32.40;;;;;;;4.94;71.82;99092.20;108853;1252;95842;-71
2023/03/22 00:36:08;;;;;;;92.50;33.20;;;;;;;4.91;71.87;99092.67;108643;1254;100915;-71
2023/03/22 00:38:35;;;;;;;82.10;29.80;;;;;;;4.91;72.01;99092.18;108702;1253;107656;-71
2023/03/22 00:41:14;;;;;;;93.80;30.70;;;;;;;4.86;71.88;99089.95;108716;1256;95706;-70
2023/03/22 00:43:42;;;;;;;77.30;32.30;;;;;;;4.79;71.74;99088.02;108793;1253;95664;-71
2023/03/22 00:46:10;;;;;;;69.00;37.80;;;;;;;4.74;71.79;99088.74;108884;1253;95671;-72
2023/03/22 00:48:37;;;;;;;76.20;38.70;;;;;;;4.70;71.76;99087.77;108552;1253;100997;-74
2023/03/22 00:51:04;;;;;;;87.40;39.00;;;;;;;4.63;71.75;99085.09;108641;1254;96061;-71
2023/03/22 00:53:35;;;;;;;66.40;42.20;;;;;;;4.54;71.71;99079.89;108916;1253;95701;-71
2023/03/22 00:56:03;;;;;;;66.60;40.50;;;;;;;4.49;71.69;99086.11;108760;1254;95572;-70
2023/03/22 00:58:29;;;;;;;62.80;39.30;;;;;;;4.45;71.78;99087.88;108691;1253;111317;-71
2023/03/22 01:00:56;;;;;;;61.80;38.40;;;;;;;4.40;71.86;99087.41;108843;1253;95659;-71
2023/03/22 01:03:23;;;;;;;57.00;35.20;;;;;;;4.35;71.74;99089.03;108736;1254;95632;-71
2023/03/22 01:05:54;;;;;;;58.00;36.70;;;;;;;4.29;71.67;99085.63;108848;1253;95861;-70
2023/03/22 01:08:22;;;;;;;54.50;34.60;;;;;;;4.21;71.70;99080.71;108890;1253;95688;-71
2023/03/22 01:10:49;;;;;;;56.60;34.80;;;;;;;4.15;71.75;99077.66;108686;1253;111458;-71
2023/03/22 01:13:15;;;;;;;59.80;36.10;;;;;;;4.10;71.66;99078.58;108707;1253;96096;-75
2023/03/22 01:15:46;;;;;;;57.40;35.90;;;;;;;4.06;71.83;99082.14;108837;1253;106767;-70
2023/03/22 01:18:16;;;;;;;71.00;44.60;;;;;;;4.00;71.70;99080.09;108860;1253;95596;-70
2023/03/22 01:20:42;;;;;;;67.90;37.40;;;;;;;3.97;71.66;99079.88;108878;1253;95634;-70
2023/03/22 01:23:09;;;;;;;72.10;37.30;;;;;;;3.93;71.64;99079.00;108877;1253;95716;-70
2023/03/22 01:25:35;;;;;;;80.00;37.20;;;;;;;3.93;71.81;99075.17;108888;1253;96023;-71
2023/03/22 01:28:02;;;;;;;75.60;44.10;;;;;;;3.85;71.67;99072.14;108872;1253;96017;-70
2023/03/22 01:30:29;;;;;;;89.50;44.90;;;;;;;3.80;71.95;99066.42;108902;1253;96699;-71
2023/03/22 01:32:55;;;;;;;80.00;40.20;;;;;;;3.81;71.89;99062.73;108872;1253;111031;-71
2023/03/22 01:35:22;;;;;;;75.60;36.30;;;;;;;3.82;71.69;99060.58;108815;1252;95649;-71
2023/03/22 01:37:49;;;;;;;66.40;33.20;;;;;;;3.82;71.81;99064.27;108858;1252;96109;-70
2023/03/22 01:40:16;;;;;;;68.60;34.10;;;;;;;3.80;71.85;99061.89;108764;1253;96081;-75
2023/03/22 01:42:42;;;;;;;73.40;35.70;;;;;;;3.78;71.91;99057.95;108689;1253;95714;-70
2023/03/22 01:45:12;;;;;;;78.10;35.90;;;;;;;3.73;71.78;99052.70;108768;1254;97121;-77
2023/03/22 01:47:42;;;;;;;67.20;33.60;;;;;;;3.65;71.72;99053.24;108849;1252;107688;-70
2023/03/22 01:50:09;;;;;;;77.60;37.00;;;;;;;3.58;71.86;99051.61;108908;1253;95917;-71
2023/03/22 01:52:36;;;;;;;73.70;36.00;;;;;;;3.53;71.69;99053.39;108935;1253;95653;-70
2023/03/22 01:55:05;;;;;;;92.10;37.40;;;;;;;3.51;71.85;99052.98;108498;1253;95676;-70
2023/03/22 01:57:36;;;;;;;77.70;33.00;;;;;;;3.54;71.67;99051.64;108706;1254;100931;-70
2023/03/22 02:00:12;;;;;;;89.20;31.30;;;;;;;3.49;71.79;99047.80;108908;1253;107379;-71
2023/03/22 02:02:38;;;;;;;82.10;33.50;;;;;;;3.46;71.92;99047.97;108761;1253;95662;-71
2023/03/22 02:05:05;;;;;;;101.20;35.10;;;;;;;3.41;71.83;99047.60;108913;1253;95593;-71
2023/03/22 02:07:31;;;;;;;84.20;33.20;;;;;;;3.41;72.05;99046.19;108894;1253;95595;-70
2023/03/22 02:09:58;;;;;;;119.00;35.70;;;;;;;3.40;71.90;99043.62;108865;1254;95680;-71
2023/03/22 02:12:28;;;;;;;88.10;33.10;;;;;;;3.41;72.09;99043.61;108948;1253;95687;-71
2023/03/22 02:15:23;;;;;;;84.10;33.40;;;;;;;3.41;72.16;99043.77;108907;1253;95990;-70
2023/03/22 02:18:30;;;;;;;79.00;32.70;;;;;;;3.36;72.07;99041.36;108901;1253;109804;-70
2023/03/22 02:21:55;;;;;;;83.40;32.60;;;;;;;3.31;72.01;99041.71;108684;1253;100576;-71
2023/03/22 02:25:00;;;;;;;76.00;31.50;;;;;;;3.24;71.78;99043.95;108078;1261;107869;-70
2023/03/22 02:27:34;;;;;;;62.60;28.70;;;;;;;3.16;72.04;99046.23;108131;1261;95704;-70
2023/03/22 02:30:22;;;;;;;57.20;28.70;;;;;;;3.11;72.20;99044.00;108811;1253;95587;-70
2023/03/22 02:32:51;;;;;;;57.10;28.20;;;;;;;3.05;71.92;99044.25;108911;1253;111291;-70
2023/03/22 02:35:33;;;;;;;58.10;27.90;;;;;;;2.99;71.92;99044.31;108860;1253;101122;-71
2023/03/22 02:38:31;;;;;;;62.50;30.00;;;;;;;2.92;71.92;99039.69;108863;1253;107738;-70
2023/03/22 02:41:21;;;;;;;49.10;27.30;;;;;;;2.91;72.02;99037.62;108694;1253;95593;-71
2023/03/22 02:43:47;;;;;;;55.90;28.30;;;;;;;2.87;71.84;99039.05;108900;1253;95594;-71
2023/03/22 02:46:37;;;;;;;50.40;26.20;;;;;;;2.81;71.87;99039.09;108928;1252;96054;-71
2023/03/22 02:49:34;;;;;;;52.10;26.20;;;;;;;2.76;72.02;99041.93;108912;1252;101014;-70
2023/03/22 02:52:19;;;;;;;52.00;26.30;;;;;;;2.69;71.68;99042.20;108884;1253;107819;-74
2023/03/22 02:54:53;;;;;;;49.60;27.30;;;;;;;2.66;71.72;99042.84;108672;1253;95581;-70
2023/03/22 02:57:36;;;;;;;62.40;29.30;;;;;;;2.70;71.77;99035.70;108889;1252;95684;-70
2023/03/22 03:00:10;;;;;;;56.70;28.20;;;;;;;2.71;71.85;99035.65;108680;1253;110686;-71
2023/03/22 03:02:40;;;;;;;46.10;24.80;;;;;;;2.68;71.81;99030.88;108681;1253;101128;-71
2023/03/22 03:05:09;;;;;;;52.00;25.90;;;;;;;2.64;71.95;99035.41;108756;1253;107598;-70
2023/03/22 03:07:37;;;;;;;45.60;25.30;;;;;;;2.62;72.01;99040.07;108839;1253;95729;-70
2023/03/22 03:10:05;;;;;;;51.00;26.20;;;;;;;2.59;71.97;99046.29;108779;1253;95653;-70
2023/03/22 03:12:31;;;;;;;47.30;26.70;;;;;;;2.58;72.04;99048.77;108593;1253;110293;-70
2023/03/22 03:14:58;;;;;;;46.50;30.40;;;;;;;2.62;72.20;99049.48;108789;1253;95577;-71
2023/03/22 03:17:33;;;;;;;47.50;26.30;;;;;;;2.67;72.33;99049.66;108713;1253;95612;-71
2023/03/22 03:20:18;;;;;;;45.00;25.10;;;;;;;2.71;72.15;99048.08;108752;1252;95599;-71
2023/03/22 03:22:50;;;;;;;48.20;25.10;;;;;;;2.76;71.95;99052.07;108880;1253;95936;-70
2023/03/22 03:25:30;;;;;;;46.00;26.00;;;;;;;2.83;72.38;99053.72;108858;1253;110993;-71
2023/03/22 03:28:14;;;;;;;61.00;28.10;;;;;;;2.93;72.58;99054.89;108689;1253;100898;-71
2023/03/22 03:30:55;;;;;;;55.40;26.90;;;;;;;2.99;72.40;99059.56;108870;1252;107565;-70
2023/03/22 03:33:25;;;;;;;60.90;28.30;;;;;;;3.03;72.41;99058.52;108659;1253;95633;-71
2023/03/22 03:35:59;;;;;;;60.00;30.90;;;;;;;3.11;72.64;99062.20;108788;1253;95923;-70
2023/03/22 03:38:30;;;;;;;64.10;29.60;;;;;;;3.19;72.47;99060.48;108864;1253;110711;-70
2023/03/22 03:41:01;;;;;;;57.50;29.50;;;;;;;3.24;72.57;99058.70;108730;1256;101419;-71
2023/03/22 03:43:27;;;;;;;60.70;32.00;;;;;;;3.30;72.48;99061.79;108873;1252;107731;-70
2023/03/22 03:45:54;;;;;;;61.60;33.00;;;;;;;3.37;72.45;99062.88;108844;1253;95665;-71
2023/03/22 03:48:25;;;;;;;58.60;33.10;;;;;;;3.44;72.48;99064.17;108877;1252;95885;-70
2023/03/22 03:50:53;;;;;;;53.50;30.20;;;;;;;3.48;72.61;99067.67;108734;1255;111309;-70
2023/03/22 03:53:19;;;;;;;53.00;28.50;;;;;;;3.52;72.46;99065.94;108687;1253;100153;-71
2023/03/22 03:55:46;;;;;;;47.60;28.20;;;;;;;3.56;72.62;99064.83;108766;1252;95600;-71
2023/03/22 03:58:14;;;;;;;49.00;28.40;;;;;;;3.60;72.56;99062.42;108793;1253;95592;-71
2023/03/22 04:00:42;;;;;;;52.70;29.50;;;;;;;3.64;72.64;99062.25;108828;1253;95627;-71
2023/03/22 04:03:08;;;;;;;49.40;28.90;;;;;;;3.69;72.34;99057.61;108573;1256;95712;-71
2023/03/22 04:05:35;;;;;;;50.50;30.40;;;;;;;3.74;72.70;99053.90;108825;1252;96048;-70
2023/03/22 04:08:02;;;;;;;48.50;28.10;;;;;;;3.77;72.85;99054.11;108665;1254;96035;-70
2023/03/22 04:10:29;;;;;;;41.50;24.60;;;;;;;3.78;72.70;99058.81;108790;1253;95559;-71
2023/03/22 04:12:55;;;;;;;43.50;25.30;;;;;;;3.74;72.60;99060.55;108986;1252;95957;-71
2023/03/22 04:15:23;;;;;;;49.20;25.80;;;;;;;3.74;72.41;99061.43;108888;1253;101197;-71
2023/03/22 04:17:50;;;;;;;45.50;25.30;;;;;;;3.75;72.66;99055.23;108814;1253;107722;-71
2023/03/22 04:20:17;;;;;;;42.40;24.20;;;;;;;3.76;72.48;99051.20;108704;1253;95758;-70
2023/03/22 04:22:45;;;;;;;46.60;25.20;;;;;;;3.74;72.48;99050.40;108902;1253;95696;-70
2023/03/22 04:25:13;;;;;;;41.80;23.70;;;;;;;3.71;72.61;99049.64;108876;1253;111290;-70
2023/03/22 04:27:40;;;;;;;39.90;22.50;;;;;;;3.67;72.47;99052.81;108760;1253;100739;-71
2023/03/22 04:30:11;;;;;;;45.10;23.80;;;;;;;3.61;72.25;99055.02;108826;1253;107860;-71
2023/03/22 04:32:38;;;;;;;42.20;23.70;;;;;;;3.57;72.58;99050.23;108802;1253;95942;-70
2023/03/22 04:35:05;;;;;;;42.90;23.40;;;;;;;3.60;72.82;99053.45;108937;1253;95993;-71
2023/03/22 04:37:32;;;;;;;50.20;22.10;;;;;;;3.65;72.81;99047.80;108891;1253;96056;-70
2023/03/22 04:39:59;;;;;;;54.40;22.90;;;;;;;3.68;72.73;99051.15;108918;1253;96046;-71
2023/03/22 04:42:26;;;;;;;63.90;22.90;;;;;;;3.71;72.78;99055.06;108728;1253;95637;-70
2023/03/22 04:44:52;;;;;;;65.80;20.80;;;;;;;3.78;73.08;99056.19;108899;1252;96065;-74
2023/03/22 04:47:19;;;;;;;73.40;20.70;;;;;;;3.84;73.20;99055.03;108714;1252;95615;-71
2023/03/22 04:49:46;;;;;;;64.20;20.30;;;;;;;3.92;73.08;99053.78;108811;1253;96789;-70
2023/03/22 04:52:14;;;;;;;58.50;18.40;;;;;;;3.96;73.09;99050.09;108760;1253;107687;-72
2023/03/22 04:54:41;;;;;;;65.90;20.00;;;;;;;3.98;73.08;99051.05;108722;1252;96182;-71
2023/03/22 04:57:08;;;;;;;73.30;20.70;;;;;;;3.99;73.13;99050.33;108653;1254;96003;-71
2023/03/22 04:59:34;;;;;;;77.00;19.20;;;;;;;4.01;73.31;99050.41;108784;1253;95874;-73
2023/03/22 05:02:01;;;;;;;84.70;20.30;;;;;;;4.03;73.29;99047.88;108757;1253;95631;-72
2023/03/22 05:04:28;;;;;;;88.80;19.30;;;;;;;4.03;73.25;99050.31;108664;1252;95612;-72
2023/03/22 05:06:54;;;;;;;64.60;19.60;;;;;;;4.07;73.13;99046.63;108797;1253;95648;-73
2023/03/22 05:09:21;;;;;;;63.10;18.20;;;;;;;4.10;73.37;99044.73;108723;1254;111950;-71
2023/03/22 05:11:49;;;;;;;66.90;19.80;;;;;;;4.12;73.21;99041.83;108689;1252;100821;-72
2023/03/22 05:14:16;;;;;;;64.90;20.80;;;;;;;4.12;73.40;99045.31;108503;1253;96006;-71
2023/03/22 05:16:42;;;;;;;67.80;21.00;;;;;;;4.15;73.20;99048.17;108728;1254;95917;-73
2023/03/22 05:19:15;;;;;;;67.70;21.10;;;;;;;4.19;73.39;99048.69;108550;1253;95783;-72
2023/03/22 05:21:42;;;;;;;51.30;18.60;;;;;;;4.28;73.58;99049.85;108817;1253;111253;-70
2023/03/22 05:24:10;;;;;;;53.60;19.10;;;;;;;4.35;73.48;99048.66;108930;1252;100919;-72
2023/03/22 05:26:41;;;;;;;48.30;15.10;;;;;;;4.39;73.51;99052.15;108720;1253;107730;-70
2023/03/22 05:29:09;;;;;;;49.30;16.70;;;;;;;4.43;73.42;99053.00;108645;1252;95667;-71
2023/03/22 05:31:36;;;;;;;47.20;15.20;;;;;;;4.49;73.57;99053.63;108709;1254;95685;-72
2023/03/22 05:34:03;;;;;;;43.80;14.80;;;;;;;4.52;73.51;99056.13;108880;1253;95622;-73
2023/03/22 05:36:30;;;;;;;49.80;15.90;;;;;;;4.55;73.40;99054.91;108891;1253;95641;-70
2023/03/22 05:39:03;;;;;;;37.50;14.90;;;;;;;4.59;73.57;99056.61;108678;1253;95694;-72
2023/03/22 05:41:30;;;;;;;;;;;;;;;4.67;73.54;99059.82;108504;1252;96080;-73
2023/03/22 05:43:57;;;;;;;36.20;13.40;;;;;;;4.72;73.68;99064.27;108783;1252;96147;-71
2023/03/22 05:46:50;;;;;;;43.50;14.10;;;;;;;4.76;73.66;99065.47;108722;1252;95819;-76
2023/03/22 05:49:21;;;;;;;53.70;14.60;;;;;;;4.77;73.69;99068.41;108796;1253;101834;-76
2023/03/22 05:51:49;;;;;;;45.80;14.60;;;;;;;4.79;73.60;99063.23;108613;1254;95960;-78
2023/03/22 05:54:15;;;;;;;45.30;14.00;;;;;;;4.85;73.75;99063.66;108456;1253;95629;-79
2023/03/22 05:56:43;;;;;;;46.40;15.00;;;;;;;4.93;73.78;99066.23;108636;1253;95977;-74
2023/03/22 05:59:09;;;;;;;58.40;15.10;;;;;;;5.04;73.92;99066.58;108875;1253;95618;-73
2023/03/22 06:01:36;;;;;;;34.10;12.50;;;;;;;5.12;73.84;99066.02;108851;1253;95700;-71
2023/03/22 06:04:03;;;;;;;64.40;15.60;;;;;;;5.17;73.65;99073.15;108816;1252;95697;-75
2023/03/22 06:06:30;;;;;;;57.40;15.90;;;;;;;5.18;73.65;99071.86;108866;1252;95768;-76
2023/03/22 06:08:56;;;;;;;50.60;15.90;;;;;;;5.24;73.64;99079.13;108649;1252;111419;-70
2023/03/22 06:11:41;;;;;;;48.30;17.30;;;;;;;5.34;73.92;99077.56;108824;1253;100690;-70
2023/03/22 06:14:08;;;;;;;46.50;16.80;;;;;;;5.43;73.86;99078.38;108641;1256;96039;-69
2023/03/22 06:16:35;;;;;;;57.00;15.90;;;;;;;5.47;73.84;99077.42;108637;1253;96672;-69
2023/03/22 06:19:02;;;;;;;49.00;16.00;;;;;;;5.49;73.75;99081.21;108685;1253;96225;-70
2023/03/22 06:21:29;;;;;;;53.50;15.70;;;;;;;5.49;73.86;99081.54;108780;1253;95922;-70
2023/03/22 06:23:55;;;;;;;51.80;17.30;;;;;;;5.51;73.69;99079.54;108842;1252;95706;-69
2023/03/22 06:26:22;;;;;;;49.10;16.60;;;;;;;5.58;73.84;99081.66;108773;1252;95620;-70
2023/03/22 06:28:49;;;;;;;59.60;16.70;;;;;;;5.66;73.92;99086.50;108848;1253;95600;-73
2023/03/22 06:31:16;;;;;;;49.70;15.20;;;;;;;5.68;73.76;99086.74;108818;1253;95679;-73
2023/03/22 06:33:44;;;;;;;37.70;14.30;;;;;;;5.69;73.74;99091.46;108745;1253;95790;-78
2023/03/22 06:36:10;;;;;;;33.70;14.50;;;;;;;5.74;73.70;99093.08;108738;1252;95838;-73
2023/03/22 06:38:37;;;;;;;37.30;15.30;;;;;;;5.82;73.85;99092.35;108776;1253;96025;-76
2023/03/22 06:41:04;;;;;;;28.10;13.60;;;;;;;5.88;73.81;99095.41;108503;1252;95724;-70
2023/03/22 06:43:31;;;;;;;31.70;14.60;;;;;;;5.96;73.96;99095.69;108928;1253;96680;-69
2023/03/22 06:45:58;;;;;;;32.50;13.50;;;;;;;6.03;74.01;99094.64;108797;1252;107104;-73
2023/03/22 06:48:28;;;;;;;31.30;14.90;;;;;;;6.14;74.05;99099.33;108761;1253;95750;-73
2023/03/22 06:50:54;;;;;;;35.60;15.20;;;;;;;6.25;74.03;99098.40;108760;1253;95863;-73
2023/03/22 06:53:21;;;;;;;34.90;16.30;;;;;;;6.33;74.00;99099.00;108771;1253;96151;-73
2023/03/22 06:55:48;;;;;;;29.70;13.70;;;;;;;6.38;73.97;99097.84;108439;1253;95719;-74
2023/03/22 06:58:19;;;;;;;34.10;14.40;;;;;;;6.40;73.71;99097.04;108734;1253;96499;-72
2023/03/22 07:00:49;;;;;;;33.40;14.20;;;;;;;6.43;74.04;99101.48;108743;1253;96977;-72
2023/03/22 07:03:19;;;;;;;32.40;13.70;;;;;;;6.46;73.96;99099.53;108801;1253;95548;-72
2023/03/22 07:05:46;;;;;;;36.00;14.20;;;;;;;6.46;73.82;99100.61;108464;1252;113652;-76
2023/03/22 07:08:13;;;;;;;35.20;14.60;;;;;;;6.51;73.95;99103.48;108806;1253;95734;-71
2023/03/22 07:10:39;;;;;;;34.40;15.80;;;;;;;6.61;73.99;99099.05;108815;1252;96031;-71
2023/03/22 07:13:06;;;;;;;32.70;15.90;;;;;;;6.69;74.04;99095.63;108780;1252;95877;-71
2023/03/22 07:15:33;;;;;;;33.30;15.50;;;;;;;6.74;74.04;99094.98;108849;1253;97114;-72
2023/03/22 07:18:01;;;;;;;36.70;16.20;;;;;;;6.80;73.99;99092.53;108848;1253;95661;-71
2023/03/22 07:20:28;;;;;;;34.50;15.50;;;;;;;6.88;74.05;99097.55;108815;1253;96201;-73
2023/03/22 07:22:55;;;;;;;39.00;15.90;;;;;;;6.95;74.15;99095.73;108786;1253;95761;-71
2023/03/22 07:25:21;;;;;;;30.30;13.50;;;;;;;7.02;73.87;99094.66;108843;1252;96582;-72
2023/03/22 07:27:48;;;;;;;35.20;16.30;;;;;;;7.06;73.91;99092.84;108572;1256;111305;-72
2023/03/22 07:30:15;;;;;;;32.80;15.60;;;;;;;7.09;73.70;99095.14;108841;1253;96365;-75
2023/03/22 07:32:42;;;;;;;31.90;15.90;;;;;;;7.13;73.87;99090.85;108810;1252;95633;-72
2023/03/22 07:35:08;;;;;;;33.30;16.60;;;;;;;7.15;73.97;99091.95;108864;1253;96508;-72
2023/03/22 07:37:35;;;;;;;32.70;16.20;;;;;;;7.18;73.76;99092.88;108826;1252;96043;-71
2023/03/22 07:40:03;;;;;;;33.00;15.80;;;;;;;7.27;73.94;99090.55;108887;1253;97156;-73
2023/03/22 07:42:30;;;;;;;32.50;15.40;;;;;;;7.41;73.91;99091.70;108803;1254;107085;-72
2023/03/22 07:44:58;;;;;;;32.60;15.50;;;;;;;7.52;74.02;99083.05;108453;1254;95921;-72
2023/03/22 07:47:25;;;;;;;35.60;17.20;;;;;;;7.57;73.86;99079.09;108622;1253;95615;-71
2023/03/22 07:50:08;;;;;;;36.40;16.90;;;;;;;7.67;73.97;99083.08;108609;1252;111282;-71
2023/03/22 07:52:35;;;;;;;30.60;16.00;;;;;;;7.86;74.17;99080.35;108821;1253;101146;-71
2023/03/22 07:55:03;;;;;;;31.40;16.80;;;;;;;8.02;74.23;99074.77;108833;1252;105487;-73
2023/03/22 07:57:30;;;;;;;32.90;15.80;;;;;;;8.15;74.16;99078.38;108634;1252;95960;-72
2023/03/22 08:00:02;;;;;;;33.00;16.30;;;;;;;8.26;73.98;99074.73;108804;1252;95939;-73
2023/03/22 08:02:30;;;;;;;35.00;18.10;;;;;;;8.37;73.97;99078.63;108413;1253;110847;-74
2023/03/22 08:04:56;;;;;;;35.80;18.80;;;;;;;8.45;74.04;99079.89;108826;1252;95682;-71
2023/03/22 08:07:24;;;;;;;34.40;19.20;;;;;;;8.59;74.08;99081.66;108778;1252;95950;-71
2023/03/22 08:09:51;;;;;;;35.40;19.40;;;;;;;8.74;74.20;99083.40;108808;1253;95747;-75
2023/03/22 08:12:18;;;;;;;39.60;22.10;;;;;;;8.82;73.91;99083.61;108826;1252;96124;-71
2023/03/22 08:14:49;;;;;;;37.10;20.10;;;;;;;8.87;73.91;99088.55;108824;1253;95970;-70
2023/03/22 08:17:17;;;;;;;36.10;19.50;;;;;;;8.89;73.82;99088.41;108640;1253;100970;-71
2023/03/22 08:19:49;;;;;;;37.80;20.50;;;;;;;8.95;73.87;99087.88;108627;1252;107628;-75
2023/03/22 08:22:28;;;;;;;36.00;19.80;;;;;;;9.01;73.89;99086.38;108507;1252;96046;-72
2023/03/22 08:24:55;;;;;;;37.40;21.10;;;;;;;9.07;73.79;99087.92;108656;1254;95621;-72
2023/03/22 08:27:21;;;;;;;37.40;21.00;;;;;;;9.06;73.62;99088.36;108792;1253;96067;-70
2023/03/22 08:29:48;;;;;;;36.90;21.00;;;;;;;9.08;73.76;99088.59;108617;1252;96183;-70
2023/03/22 08:32:15;;;;;;;35.30;19.30;;;;;;;9.14;73.82;99085.19;108869;1253;95825;-75
2023/03/22 08:34:43;;;;;;;37.30;21.20;;;;;;;9.26;73.88;99082.44;108795;1253;95865;-70
2023/03/22 08:37:11;;;;;;;37.00;21.20;;;;;;;9.35;73.79;99081.34;108578;1252;95684;-70
2023/03/22 08:39:38;;;;;;;33.30;19.10;;;;;;;9.42;73.74;99080.88;108730;1254;95639;-69
2023/03/22 08:42:05;;;;;;;33.70;19.20;;;;;;;9.42;73.68;99078.59;108799;1254;95691;-75
2023/03/22 08:44:31;;;;;;;33.90;19.40;;;;;;;9.42;73.54;99081.25;108796;1253;95606;-71
2023/03/22 08:46:58;;;;;;;35.10;20.50;;;;;;;9.46;73.64;99077.41;108888;1252;95584;-76
2023/03/22 08:49:26;;;;;;;31.90;17.30;;;;;;;9.54;73.63;99077.60;108815;1253;111656;-72
2023/03/22 08:51:52;;;;;;;31.30;18.20;;;;;;;9.62;73.64;99069.23;108835;1253;100404;-71
2023/03/22 08:54:19;;;;;;;32.90;18.80;;;;;;;9.71;73.72;99066.69;108783;1253;95696;-71
2023/03/22 08:56:47;;;;;;;32.60;17.70;;;;;;;9.78;73.65;99068.52;108823;1253;95678;-71
2023/03/22 08:59:13;;;;;;;31.90;17.00;;;;;;;9.90;73.62;99069.98;108742;1252;155709;-71
2023/03/22 09:01:40;;;;;;;29.20;16.60;;;;;;;9.96;73.49;99069.05;108806;1253;96045;-72
2023/03/22 09:04:07;;;;;;;32.50;16.70;;;;;;;9.98;73.43;99070.61;108894;1256;95700;-71
2023/03/22 09:06:37;;;;;;;29.40;16.80;;;;;;;9.97;73.34;99067.69;108626;1252;95705;-72
2023/03/22 09:09:03;;;;;;;30.70;17.00;;;;;;;9.86;73.21;99065.08;108819;1253;95670;-71
2023/03/22 09:11:30;;;;;;;32.60;17.40;;;;;;;9.75;73.22;99062.33;108781;1253;97270;-71
2023/03/22 09:13:56;;;;;;;30.20;17.80;;;;;;;9.66;73.21;99061.33;108750;1253;96786;-76
2023/03/22 09:16:23;;;;;;;30.60;17.20;;;;;;;9.59;73.13;99065.16;108849;1252;95889;-71
2023/03/22 09:18:50;;;;;;;30.60;17.10;;;;;;;9.55;73.33;99065.31;108646;1252;95891;-73
2023/03/22 09:21:17;;;;;;;30.10;17.70;;;;;;;9.51;73.23;99060.23;108610;1254;95893;-71
2023/03/22 09:23:46;;;;;;;30.80;16.80;;;;;;;9.48;73.19;99054.96;108853;1252;96025;-76
2023/03/22 09:26:13;;;;;;;32.40;17.30;;;;;;;9.39;73.09;99054.86;108603;1254;107858;-71
2023/03/22 09:28:40;;;;;;;32.90;18.90;;;;;;;9.33;73.07;99056.49;108837;1253;95612;-73
2023/03/22 09:31:09;;;;;;;32.50;18.00;;;;;;;9.29;73.04;99052.00;108812;1253;95830;-72
2023/03/22 09:33:37;;;;;;;27.80;15.50;;;;;;;9.23;72.98;99049.74;108823;1252;111391;-72
2023/03/22 09:36:05;;;;;;;30.50;16.60;;;;;;;9.20;73.15;99046.90;108878;1253;100220;-72
2023/03/22 09:38:35;;;;;;;29.00;15.10;;;;;;;9.23;73.13;99047.27;108789;1252;108012;-73
2023/03/22 09:41:06;;;;;;;25.70;13.60;;;;;;;9.24;73.15;99045.97;108848;1252;95577;-72
2023/03/22 09:43:36;;;;;;;27.80;14.80;;;;;;;9.24;73.09;99043.29;108830;1252;95779;-73
2023/03/22 09:46:09;;;;;;;29.20;16.50;;;;;;;9.27;73.21;99041.33;108808;1254;111042;-74
2023/03/22 09:48:39;;;;;;;28.20;15.90;;;;;;;9.33;73.09;99034.42;108868;1254;101139;-71
2023/03/22 09:51:18;;;;;;;27.60;15.30;;;;;;;9.38;73.27;99032.62;108826;1253;107644;-74
2023/03/22 09:53:44;;;;;;;28.10;15.00;;;;;;;9.43;73.12;99031.79;108841;1254;95951;-77
2023/03/22 09:56:21;;;;;;;25.90;14.50;;;;;;;9.44;73.10;99033.99;108884;1254;95592;-73
2023/03/22 09:59:10;;;;;;;27.60;14.60;;;;;;;9.47;73.05;99027.95;108527;1252;111071;-73
2023/03/22 10:01:42;;;;;;;27.40;14.80;;;;;;;9.52;73.03;99025.87;108526;1258;100699;-70
2023/03/22 10:04:34;;;;;;;29.60;15.40;;;;;;;9.54;72.92;99020.41;108732;1254;105849;-72
2023/03/22 10:07:20;;;;;;;27.10;14.90;;;;;;;9.55;72.88;99021.23;108763;1254;96026;-72
2023/03/22 10:10:11;;;;;;;30.10;15.20;;;;;;;9.55;72.95;99015.19;108797;1253;96593;-72
2023/03/22 10:12:52;;;;;;;24.40;13.00;;;;;;;9.58;72.77;99005.44;108649;1253;110830;-75
2023/03/22 10:15:27;;;;;;;26.60;13.90;;;;;;;9.60;72.71;99001.43;108814;1253;100654;-72
2023/03/22 10:17:57;;;;;;;25.70;12.90;;;;;;;9.64;72.88;98993.31;108720;1253;107170;-72
2023/03/22 10:20:33;;;;;;;23.80;11.60;;;;;;;9.74;72.84;98991.61;108789;1253;95830;-72
2023/03/22 10:23:02;;;;;;;23.60;12.20;;;;;;;9.79;72.82;98987.10;108778;1253;95583;-72
2023/03/22 10:25:38;;;;;;;22.10;11.60;;;;;;;9.85;72.61;98990.27;108500;1253;109949;-71
2023/03/22 10:28:16;;;;;;;23.20;11.40;;;;;;;9.92;72.61;98986.60;108821;1252;101811;-72
2023/03/22 10:30:49;;;;;;;23.40;11.30;;;;;;;9.96;72.51;98983.67;108586;1253;109003;-73
2023/03/22 10:33:35;;;;;;;23.10;10.90;;;;;;;10.00;72.47;98981.41;108777;1253;95914;-72
2023/03/22 10:36:04;;;;;;;21.50;10.80;;;;;;;10.07;72.38;98977.14;108854;1252;95693;-72
2023/03/22 10:38:36;;;;;;;20.90;9.90;;;;;;;10.15;72.40;98975.19;108626;1254;110709;-71
2023/03/22 10:41:04;;;;;;;18.60;7.50;;;;;;;10.25;72.37;98972.39;108845;1252;101012;-71
2023/03/22 10:43:40;;;;;;;16.80;7.50;;;;;;;10.31;72.10;98969.25;108815;1252;106270;-71
2023/03/22 10:46:14;;;;;;;16.30;6.90;;;;;;;10.41;71.96;98970.14;108831;1253;96687;-72
2023/03/22 10:48:44;;;;;;;15.60;6.40;;;;;;;10.54;72.04;98965.84;108535;1252;96075;-73
2023/03/22 10:51:22;;;;;;;13.60;5.80;;;;;;;10.65;71.89;98960.11;108800;1253;110930;-73
2023/03/22 10:53:52;;;;;;;17.50;7.20;;;;;;;10.72;71.81;98956.38;108801;1254;100843;-73
2023/03/22 10:56:20;;;;;;;16.80;7.90;;;;;;;10.85;71.99;98948.52;108871;1252;106694;-74
2023/03/22 10:58:48;;;;;;;18.10;8.70;;;;;;;10.97;71.91;98941.71;108440;1253;95796;-71
2023/03/22 11:01:24;;;;;;;20.60;8.70;;;;;;;11.06;71.78;98941.45;108799;1254;95647;-76
2023/03/22 11:03:56;;;;;;;19.30;9.30;;;;;;;11.14;72.02;98943.42;108777;1253;109878;-68
2023/03/22 11:06:26;;;;;;;18.60;8.80;;;;;;;11.21;71.87;98936.53;108739;1252;99872;-70
2023/03/22 11:08:57;;;;;;;19.40;8.20;;;;;;;11.26;71.77;98935.08;108591;1259;107628;-70
2023/03/22 11:11:35;;;;;;;16.70;7.60;;;;;;;11.32;71.67;98933.35;108649;1253;96151;-71
2023/03/22 11:14:07;;;;;;;17.20;7.80;;;;;;;11.44;71.58;98934.17;108602;1254;95675;-70
2023/03/22 11:16:51;;;;;;;17.40;7.80;;;;;;;11.57;71.41;98935.00;108767;1254;111288;-71
2023/03/22 11:19:22;;;;;;;17.10;7.80;;;;;;;11.70;71.37;98927.93;108754;1256;100720;-69
2023/03/22 11:21:50;;;;;;;18.20;7.90;;;;;;;11.86;71.39;98919.38;108814;1253;107118;-69
2023/03/22 11:24:17;;;;;;;16.80;7.80;;;;;;;12.01;71.56;98919.23;108604;1259;96255;-70
2023/03/22 11:27:20;;;;;;;18.90;8.20;;;;;;;12.07;71.25;98911.12;108836;1253;95934;-69
2023/03/22 11:29:52;;;;;;;16.40;7.30;;;;;;;12.13;71.29;98916.55;108777;1252;110949;-67